Punta Gorda Airport

Date: 2024-06-11 10:53:00Z

Type: METAR

Weather: Light Rain

Winds: 170° at 6 kts

Visibility: 6

Ceiling (AGL FT): Clouds FEW at 1700, SCATTERED at 7000, BROKEN at 8500, BROKEN at 25000

RAW METAR: KPGD 111053Z 17006KT 6SM -RA BR FEW017 SCT070 BKN085 26/24 A2988 RMK AO2 LTG DSNT SE AND S TSB00E26 SLP117 P0016 T02560239

project-image